Bei Facebook empfehlenBei Twitter postenGoogle plusPinterest

Das Wetter im Erzgebirge am 11.07.2016

Wetter und Klima am 11.07.2016 Holzhau im Erzgebirge (630m ü.NN)
Letzte gemessene Temperatur und Uhrzeit der Messung23:45:00 Uhr15.50 °C
Temperatur (Maximum / Höchstwert) und Uhrzeit der Messung15:45:00 Uhr31.10 °C
Temperatur (Minimum / Tiefstwert) und Uhrzeit der Messung04:15:0014.90 °C
Errechneter Absolutwert der Temperaturschwankungen zwischen Tmin und Tmax des Tages16.20 K
Errechnete Tagesmitteltemperatur22.35521 °C
Gesamt - Niederschlag des Tages (in flüssiger Form)2.07 Liter / m²
Luftdruck (Maximum / Höchstwert) und Zeitpunkt der Messung23:45:00 Uhr1010.60 hPa
Luftdruck (Minimum / Tiefstwert) und Zeitpunkt der Messung05:30:00 Uhr1008.40 hPa
Errechneter Absolutwert der Luftdruckschwankungen des Tages2.20 hPa
Höchste gemessene Windgeschwindigkeit und Uhrzeit der Messung23:45:00 Uhr0.00 km/h
Errechnete Windhäufigkeit in Relation zu den Messwerten des Tages0.00000 %
Niedrigste Windkühle (Windchill) und Zeitpunkt der Messung04:15:00 Uhr14.90 °C
Taupunkt (Maximum / Höchstwert) und Uhrzeit der Messung08:30:00 Uhr19.70 °C
Taupunkt (Minimum / Tiefstwert) und Uhrzeit der Messung03:00:0012.80 °C
Anzahl der automatisch eingelesenen Messwerte 96

Detaillierte Wetter- und Klima- Messwerte für den 11.07.2016 in Holzhau im Erzgebirge (630m ü.NN)
ZeitTemperaturLuftdruckRel. LuftfeuchteWindWindrichtungWindchillTaupunktNiederschlag l/m²
23:45:0015.50 °C1010.60 hPa90.00 %13.90 °C2.07
23:30:0015.80 °C1010.50 hPa90.00 %14.20 °C2.07
23:15:0016.10 °C1010.50 hPa90.00 %14.50 °C2.07
23:00:0016.40 °C1010.30 hPa90.00 %14.80 °C2.07
22:45:0016.70 °C1010.10 hPa90.00 %15.10 °C2.07
22:30:0016.90 °C1010.20 hPa89.00 %15.10 °C2.07
22:15:0017.10 °C1010.30 hPa89.00 %15.30 °C2.07
22:00:0017.30 °C1010.00 hPa89.00 %15.50 °C2.07
21:45:0017.50 °C1010.10 hPa89.00 %15.70 °C2.07
21:30:0017.70 °C1010.20 hPa88.00 %15.70 °C2.07
21:15:0017.90 °C1009.90 hPa87.00 %15.70 °C1.55
21:00:0018.30 °C1009.80 hPa87.00 %16.10 °C1.55
20:45:0018.60 °C1009.70 hPa85.00 %16.00 °C1.55
20:30:0018.90 °C1009.50 hPa84.00 %16.10 °C1.55
20:15:0019.30 °C1009.60 hPa82.00 %16.20 °C1.55
20:00:0019.60 °C1009.70 hPa80.00 %16.10 °C1.55
19:45:0019.80 °C1009.60 hPa77.00 %15.70 °C1.55
19:30:0020.20 °C1009.60 hPa71.00 %14.80 °C1.55
19:15:0023.20 °C1009.70 hPa57.00 %14.20 °C1.55
19:00:0027.60 °C1008.90 hPa46.00 %14.90 °C 
18:45:0028.40 °C1009.10 hPa45.00 %15.30 °C 
18:30:0029.40 °C1009.30 hPa46.00 %16.60 °C 
18:15:0029.80 °C1009.10 hPa45.00 %16.60 °C 
18:00:0030.30 °C1008.90 hPa43.00 %16.30 °C 
17:45:0030.60 °C1008.80 hPa45.00 %17.30 °C 
17:30:0030.50 °C1008.90 hPa45.00 %17.20 °C 
17:15:0030.80 °C1009.00 hPa46.00 %17.80 °C 
17:00:0030.80 °C1009.00 hPa46.00 %17.80 °C 
16:45:0030.90 °C1009.00 hPa46.00 %17.90 °C 
16:30:0030.60 °C1008.80 hPa45.00 %17.30 °C 
16:15:0030.60 °C1009.00 hPa45.00 %17.30 °C 
16:00:0030.60 °C1009.30 hPa45.00 %17.30 °C 
15:45:0031.10 °C1009.20 hPa47.00 %18.50 °C 
15:30:0029.80 °C1009.40 hPa49.00 %17.90 °C 
15:15:0029.30 °C1009.50 hPa48.00 %17.20 °C 
15:00:0029.30 °C1009.60 hPa47.00 %16.80 °C 
14:45:0029.80 °C1009.70 hPa46.00 %16.90 °C 
14:30:0029.70 °C1009.60 hPa49.00 %17.80 °C 
14:15:0029.00 °C1009.80 hPa50.00 %17.50 °C 
14:00:0028.90 °C1009.80 hPa49.00 %17.10 °C 
13:45:0029.30 °C1009.80 hPa49.00 %17.50 °C 
13:30:0029.50 °C1009.70 hPa49.00 %17.70 °C 
13:15:0030.10 °C1009.60 hPa49.00 %18.20 °C 
13:00:0029.90 °C1009.40 hPa51.00 %18.70 °C 
12:45:0030.00 °C1009.60 hPa50.00 %18.40 °C 
12:30:0029.80 °C1009.40 hPa52.00 %18.90 °C 
12:15:0029.30 °C1009.30 hPa52.00 %18.40 °C 
12:00:0029.30 °C1009.40 hPa53.00 %18.70 °C 
11:45:0028.80 °C1009.40 hPa54.00 %18.60 °C 
11:30:0028.60 °C1009.40 hPa54.00 %18.40 °C 
11:15:0028.30 °C1009.30 hPa57.00 %19.00 °C 
11:00:0027.90 °C1009.50 hPa57.00 %18.60 °C 
10:45:0027.90 °C1009.40 hPa58.00 %18.90 °C 
10:30:0027.90 °C1009.50 hPa58.00 %18.90 °C 
10:15:0027.60 °C1009.30 hPa59.00 %18.90 °C 
10:00:0027.50 °C1009.10 hPa59.00 %18.80 °C 
09:45:0027.20 °C1009.10 hPa60.00 %18.80 °C 
09:30:0026.40 °C1008.90 hPa63.00 %18.80 °C 
09:15:0026.10 °C1008.80 hPa64.00 %18.80 °C 
09:00:0026.40 °C1008.70 hPa66.00 %19.50 °C 
08:45:0025.70 °C1008.70 hPa69.00 %19.60 °C 
08:30:0024.90 °C1008.70 hPa73.00 %19.70 °C 
08:15:0023.60 °C1008.70 hPa79.00 %19.70 °C 
08:00:0022.40 °C1008.70 hPa81.00 %19.00 °C 
07:45:0020.90 °C1008.70 hPa85.00 %18.30 °C 
07:30:0019.40 °C1008.70 hPa87.00 %17.20 °C 
07:15:0018.30 °C1008.60 hPa89.00 %16.50 °C 
07:00:0017.40 °C1008.60 hPa90.00 %15.70 °C 
06:45:0016.40 °C1008.60 hPa90.00 %14.80 °C 
06:30:0015.90 °C1008.60 hPa90.00 %14.30 °C 
06:15:0015.90 °C1008.50 hPa90.00 %14.30 °C 
06:00:0015.60 °C1008.60 hPa90.00 %14.00 °C 
05:45:0015.20 °C1008.60 hPa90.00 %13.60 °C 
05:30:0015.20 °C1008.40 hPa90.00 %13.60 °C 
05:15:0015.30 °C1008.40 hPa90.00 %13.70 °C 
05:00:0015.40 °C1008.60 hPa90.00 %13.80 °C 
04:45:0015.30 °C1008.60 hPa90.00 %13.70 °C 
04:30:0015.00 °C1008.70 hPa90.00 %13.40 °C 
04:15:0014.90 °C1008.70 hPa89.00 %13.10 °C 
04:00:0014.90 °C1008.80 hPa89.00 %13.10 °C 
03:45:0014.90 °C1008.80 hPa89.00 %13.10 °C 
03:30:0014.90 °C1008.80 hPa88.00 %12.90 °C 
03:15:0014.90 °C1009.00 hPa88.00 %12.90 °C 
03:00:0014.90 °C1009.00 hPa87.00 %12.80 °C 
02:45:0014.90 °C1009.10 hPa87.00 %12.80 °C 
02:30:0015.30 °C1009.20 hPa86.00 %13.00 °C 
02:15:0015.80 °C1009.30 hPa86.00 %13.50 °C 
02:00:0015.50 °C1009.40 hPa85.00 %13.00 °C 
01:45:0015.50 °C1009.70 hPa84.00 %12.80 °C 
01:30:0015.70 °C1009.70 hPa84.00 %13.00 °C 
01:15:0015.90 °C1009.70 hPa83.00 %13.00 °C 
01:00:0016.30 °C1009.70 hPa83.00 %13.40 °C 
00:45:0016.30 °C1009.80 hPa83.00 %13.40 °C 
00:30:0016.30 °C1009.80 hPa82.00 %13.20 °C 
00:15:0016.40 °C1009.90 hPa81.00 %13.10 °C 
00:00:0016.60 °C1010.20 hPa81.00 %13.30 °C 

Permanenter Link zu dieser Seite: Wetter im Erzgebirge am 11.07.2016
Performance-Info: Die Erstellung der Seite / Statistik(en) / Tabelle(n) erforderte 5 Datenbankserver-Abfrage(n) und dauerte 97 Millisekunden. (Dieser Messwert ist von der Gesamt-Auslastung des Servers abhängig.)
Erzgebirge - Wetter | Erzgebirge - Wetter (Mobilgeräte) | Komplette Klimadatenbank